createdAt,value
2018-06-30T00:00:50.330Z,97709.02
2018-06-30T00:03:20.188Z,97711.12
2018-06-30T00:05:50.256Z,97712.98
2018-06-30T00:08:19.067Z,97715.36
2018-06-30T00:10:47.940Z,97722.14
2018-06-30T00:13:16.740Z,97727.86
2018-06-30T00:15:46.049Z,97718.86
2018-06-30T00:18:15.102Z,97719.23
2018-06-30T00:20:44.051Z,97717.14
2018-06-30T00:23:12.926Z,97723.33
2018-06-30T00:25:41.894Z,97721.97
2018-06-30T00:28:10.726Z,97716.77
2018-06-30T00:30:39.825Z,97715.92
2018-06-30T00:33:08.883Z,97716.14
2018-06-30T00:35:37.899Z,97717.77
2018-06-30T00:38:06.946Z,97725.13
2018-06-30T00:40:35.774Z,97724.23
2018-06-30T00:43:04.730Z,97722.93
2018-06-30T00:45:34.023Z,97722.66
2018-06-30T00:48:02.754Z,97720.77
2018-06-30T00:50:31.634Z,97721.70
2018-06-30T00:53:00.361Z,97722.61
2018-06-30T00:55:29.501Z,97717.66
2018-06-30T00:57:58.369Z,97724.91
2018-06-30T01:00:27.273Z,97724.38
2018-06-30T01:02:56.338Z,97725.90
2018-06-30T01:05:25.110Z,97726.62
2018-06-30T01:07:54.177Z,97728.56
2018-06-30T01:10:23.091Z,97729.40
2018-06-30T01:12:51.906Z,97727.82
2018-06-30T01:15:20.725Z,97731.70
2018-06-30T01:17:49.551Z,97726.72
2018-06-30T01:20:18.509Z,97735.63
2018-06-30T01:22:47.291Z,97735.63
2018-06-30T01:25:16.409Z,97731.33
2018-06-30T01:27:45.318Z,97740.42
2018-06-30T01:30:14.647Z,97732.95
2018-06-30T01:32:43.636Z,97732.06
2018-06-30T01:35:12.618Z,97740.39
2018-06-30T01:37:41.529Z,97734.72
2018-06-30T01:40:10.455Z,97733.89
2018-06-30T01:42:39.268Z,97742.65
2018-06-30T01:45:08.355Z,97739.52
2018-06-30T01:47:37.133Z,97730.62
2018-06-30T01:50:05.924Z,97731.58
2018-06-30T01:52:34.709Z,97731.01
2018-06-30T01:55:03.662Z,97732.52
2018-06-30T01:57:32.437Z,97729.68
2018-06-30T02:00:01.518Z,97726.38
2018-06-30T02:02:30.299Z,97727.23
2018-06-30T02:04:59.393Z,97722.59
2018-06-30T02:07:28.428Z,97721.20
2018-06-30T02:09:57.210Z,97723.92
2018-06-30T02:12:26.315Z,97722.56
2018-06-30T02:14:55.042Z,97719.58
2018-06-30T02:17:24.259Z,97711.67
2018-06-30T02:19:53.071Z,97711.35
2018-06-30T02:22:21.970Z,97709.91
2018-06-30T02:24:50.870Z,97713.78
2018-06-30T02:27:19.917Z,97710.38
2018-06-30T02:29:49.043Z,97716.97
2018-06-30T02:32:17.795Z,97715.97
2018-06-30T02:34:46.550Z,97712.45
2018-06-30T02:37:15.438Z,97712.88
2018-06-30T02:39:44.570Z,97720.41
2018-06-30T02:42:13.620Z,97717.33
2018-06-30T02:44:42.607Z,97720.41
2018-06-30T02:47:11.629Z,97721.28
2018-06-30T02:49:40.597Z,97720.41
2018-06-30T02:52:09.425Z,97713.05
2018-06-30T02:54:38.267Z,97714.79
2018-06-30T02:57:07.093Z,97716.29
2018-06-30T02:59:36.315Z,97716.09
2018-06-30T03:02:05.256Z,97711.09
2018-06-30T03:15:39.906Z,97726.04
2018-06-30T03:18:08.702Z,97721.86
2018-06-30T03:20:37.514Z,97721.50
2018-06-30T03:23:06.571Z,97723.08
2018-06-30T03:25:35.330Z,97728.09
2018-06-30T03:28:04.145Z,97731.73
2018-06-30T03:30:33.153Z,97729.47
2018-06-30T03:33:02.066Z,97729.80
2018-06-30T03:35:31.041Z,97736.72
2018-06-30T03:38:00.028Z,97734.22
2018-06-30T03:40:28.928Z,97728.22
2018-06-30T03:42:58.139Z,97732.41
2018-06-30T03:45:27.053Z,97728.77
2018-06-30T03:47:55.903Z,97725.38
2018-06-30T03:50:25.141Z,97726.51
2018-06-30T03:52:53.986Z,97726.95
2018-06-30T03:55:22.908Z,97719.33
2018-06-30T03:57:51.811Z,97715.33
2018-06-30T04:00:20.629Z,97713.73
2018-06-30T04:02:49.343Z,97724.15
2018-06-30T04:05:18.578Z,97720.05
2018-06-30T04:07:47.483Z,97721.41
2018-06-30T04:10:16.647Z,97723.70
2018-06-30T04:12:45.504Z,97724.27
2018-06-30T04:15:14.310Z,97721.39
2018-06-30T04:17:43.172Z,97726.03
2018-06-30T04:20:11.915Z,97727.61
2018-06-30T04:22:40.792Z,97730.99
2018-06-30T04:25:09.631Z,97729.49
2018-06-30T04:27:38.475Z,97738.06
2018-06-30T04:30:07.503Z,97739.33
2018-06-30T04:32:36.555Z,97737.78
2018-06-30T04:35:05.927Z,97745.75
2018-06-30T04:37:34.655Z,97744.14
2018-06-30T04:40:03.532Z,97750.28
2018-06-30T04:42:32.432Z,97753.23
2018-06-30T04:45:01.250Z,97751.40
2018-06-30T04:47:30.750Z,97757.51
2018-06-30T04:49:59.721Z,97760.20
2018-06-30T04:52:28.578Z,97762.41
2018-06-30T04:54:57.291Z,97768.98
2018-06-30T04:57:26.149Z,97769.59
2018-06-30T04:59:54.855Z,97766.25
2018-06-30T05:02:23.744Z,97773.94
2018-06-30T05:04:52.611Z,97768.87
2018-06-30T05:07:21.493Z,97774.38
2018-06-30T05:09:50.403Z,97766.45
2018-06-30T05:12:19.263Z,97768.00
2018-06-30T05:14:48.188Z,97768.31
2018-06-30T05:17:16.943Z,97772.89
2018-06-30T05:19:45.934Z,97773.11
2018-06-30T05:22:14.693Z,97763.80
2018-06-30T05:24:43.745Z,97765.83
2018-06-30T05:27:12.691Z,97765.56
2018-06-30T05:29:41.585Z,97762.73
2018-06-30T05:32:10.454Z,97768.57
2018-06-30T05:34:39.625Z,97776.89
2018-06-30T05:37:08.722Z,97772.95
2018-06-30T05:39:37.585Z,97768.05
2018-06-30T05:42:06.354Z,97774.54
2018-06-30T05:44:35.351Z,97776.84
2018-06-30T05:47:04.202Z,97778.71
2018-06-30T05:49:33.159Z,97778.75
2018-06-30T05:52:02.002Z,97778.05
2018-06-30T05:54:31.101Z,97771.88
2018-06-30T05:56:59.970Z,97776.68
2018-06-30T05:59:29.007Z,97774.95
2018-06-30T06:01:57.826Z,97775.09
2018-06-30T06:04:26.750Z,97775.28
2018-06-30T06:06:55.704Z,97776.20
2018-06-30T06:09:24.465Z,97775.48
2018-06-30T06:11:53.662Z,97779.88
2018-06-30T06:14:22.974Z,97780.34
2018-06-30T06:16:51.845Z,97780.84
2018-06-30T06:19:21.266Z,97786.77
2018-06-30T06:21:50.398Z,97786.89
2018-06-30T06:24:19.171Z,97790.92
2018-06-30T06:26:48.438Z,97782.83
2018-06-30T06:29:17.447Z,97785.84
2018-06-30T06:31:46.645Z,97783.91
2018-06-30T06:34:15.920Z,97781.09
2018-06-30T06:36:45.045Z,97786.38
2018-06-30T06:39:13.837Z,97784.61
2018-06-30T06:41:42.770Z,97779.12
2018-06-30T06:44:11.870Z,97785.56
2018-06-30T06:46:41.012Z,97781.00
2018-06-30T06:49:10.019Z,97783.95
2018-06-30T06:51:39.006Z,97783.84
2018-06-30T06:54:08.005Z,97788.26
2018-06-30T06:56:36.916Z,97782.27
2018-06-30T06:59:06.175Z,97789.84
2018-06-30T07:01:34.924Z,97788.94
2018-06-30T07:04:03.861Z,97788.21
2018-06-30T07:06:33.065Z,97788.32
2018-06-30T07:09:01.821Z,97796.45
2018-06-30T07:11:30.644Z,97791.77
2018-06-30T07:13:59.526Z,97797.78
2018-06-30T07:16:28.781Z,97790.98
2018-06-30T07:18:57.750Z,97792.90
2018-06-30T07:21:26.765Z,97793.28
2018-06-30T07:23:55.800Z,97791.41
2018-06-30T07:26:25.158Z,97795.20
2018-06-30T07:28:54.334Z,97793.91
2018-06-30T07:31:23.237Z,97789.80
2018-06-30T07:33:52.061Z,97785.67
2018-06-30T07:36:21.005Z,97791.05
2018-06-30T07:38:51.213Z,97786.39
2018-06-30T07:41:20.214Z,97788.61
2018-06-30T07:43:49.345Z,97789.03
2018-06-30T07:46:18.153Z,97787.82
2018-06-30T07:48:47.039Z,97780.73
2018-06-30T07:51:15.751Z,97782.47
2018-06-30T07:53:44.643Z,97779.77
2018-06-30T07:56:13.815Z,97782.39
2018-06-30T07:58:42.511Z,97785.45
2018-06-30T08:01:11.521Z,97781.48
2018-06-30T08:03:40.353Z,97781.33
2018-06-30T08:06:09.955Z,97782.63
2018-06-30T08:08:38.813Z,97782.59
2018-06-30T08:11:07.729Z,97780.14
2018-06-30T08:13:36.797Z,97779.79
2018-06-30T08:16:05.725Z,97777.26
2018-06-30T08:18:34.709Z,97776.92
2018-06-30T08:21:03.842Z,97783.02
2018-06-30T08:23:33.135Z,97786.02
2018-06-30T08:26:02.436Z,97790.72
2018-06-30T08:28:31.429Z,97789.13
2018-06-30T08:31:00.516Z,97787.77
2018-06-30T08:33:29.733Z,97794.04
2018-06-30T08:35:58.558Z,97787.29
2018-06-30T08:38:27.451Z,97793.75
2018-06-30T08:40:56.610Z,97796.81
2018-06-30T08:43:25.545Z,97794.08
2018-06-30T08:45:54.799Z,97798.69
2018-06-30T08:48:23.664Z,97808.87
2018-06-30T08:50:52.517Z,97805.13
2018-06-30T08:53:21.640Z,97804.59
2018-06-30T08:55:50.848Z,97797.92
2018-06-30T08:58:19.653Z,97805.21
2018-06-30T09:00:48.847Z,97798.56
2018-06-30T09:03:17.531Z,97796.00
2018-06-30T09:05:46.645Z,97807.85
2018-06-30T09:08:15.519Z,97806.27
2018-06-30T09:10:46.199Z,97807.45
2018-06-30T09:13:14.990Z,97807.23
2018-06-30T09:15:44.325Z,97807.81
2018-06-30T09:18:13.145Z,97811.36
2018-06-30T09:20:41.913Z,97811.55
2018-06-30T09:23:10.917Z,97814.92
2018-06-30T09:25:39.726Z,97819.64
2018-06-30T09:28:08.462Z,97816.11
2018-06-30T09:30:37.651Z,97813.35
2018-06-30T09:33:06.639Z,97811.59
2018-06-30T09:35:35.526Z,97813.93
2018-06-30T09:38:05.578Z,97813.53
2018-06-30T09:40:34.666Z,97815.53
2018-06-30T09:43:03.659Z,97809.23
2018-06-30T09:45:32.475Z,97815.50
2018-06-30T09:48:01.385Z,97811.78
2018-06-30T09:50:30.261Z,97808.83
2018-06-30T09:52:59.154Z,97810.39
2018-06-30T09:55:28.228Z,97807.42
2018-06-30T09:57:57.117Z,97810.55
2018-06-30T10:00:32.114Z,97811.16
2018-06-30T10:03:01.352Z,97803.41
2018-06-30T10:05:30.657Z,97804.81
2018-06-30T10:07:59.687Z,97800.06
2018-06-30T10:10:28.461Z,97803.02
2018-06-30T10:12:57.758Z,97799.87
2018-06-30T10:15:26.729Z,97794.73
2018-06-30T10:17:55.541Z,97791.16
2018-06-30T10:20:24.766Z,97793.16
2018-06-30T10:22:53.880Z,97794.59
2018-06-30T10:25:23.076Z,97788.86
2018-06-30T10:27:51.910Z,97786.23
2018-06-30T10:30:20.784Z,97785.25
2018-06-30T10:32:49.671Z,97788.44
2018-06-30T10:35:18.609Z,97786.64
2018-06-30T10:37:47.679Z,97782.71
2018-06-30T10:40:16.757Z,97778.95
2018-06-30T10:42:45.766Z,97783.69
2018-06-30T10:45:14.722Z,97775.02
2018-06-30T10:47:43.977Z,97776.20
2018-06-30T10:50:12.711Z,97771.88
2018-06-30T10:52:41.615Z,97761.59
2018-06-30T10:55:10.813Z,97768.66
2018-06-30T10:57:39.861Z,97763.13
2018-06-30T11:00:09.241Z,97762.00
2018-06-30T11:02:38.509Z,97772.64
2018-06-30T11:05:07.747Z,97762.42
2018-06-30T11:07:36.531Z,97765.70
2018-06-30T11:10:05.542Z,97753.84
2018-06-30T11:12:34.512Z,97759.27
2018-06-30T11:15:03.734Z,97756.39
2018-06-30T11:17:32.618Z,97755.95
2018-06-30T11:20:01.508Z,97754.94
2018-06-30T11:22:30.554Z,97765.84
2018-06-30T11:24:59.331Z,97745.05
2018-06-30T11:27:28.213Z,97757.35
2018-06-30T11:29:57.137Z,97745.89
2018-06-30T11:32:25.938Z,97751.67
2018-06-30T11:34:55.183Z,97748.42
2018-06-30T11:37:24.621Z,97744.23
2018-06-30T11:39:53.846Z,97756.30
2018-06-30T11:42:22.505Z,97743.52
2018-06-30T11:44:52.181Z,97746.65
2018-06-30T11:47:21.021Z,97743.95
2018-06-30T11:49:50.012Z,97743.53
2018-06-30T11:52:19.058Z,97745.44
2018-06-30T11:54:48.012Z,97733.50
2018-06-30T11:57:17.318Z,97739.53
2018-06-30T11:59:46.279Z,97739.77
2018-06-30T12:02:15.199Z,97728.78
2018-06-30T12:04:44.390Z,97730.64
2018-06-30T12:07:13.187Z,97732.20
2018-06-30T12:09:42.071Z,97717.76
2018-06-30T12:12:10.936Z,97726.59
2018-06-30T12:14:40.128Z,97724.17
2018-06-30T12:17:09.299Z,97724.33
2018-06-30T12:19:38.511Z,97720.47
2018-06-30T12:22:07.724Z,97719.58
2018-06-30T12:24:36.848Z,97724.03
2018-06-30T12:27:05.818Z,97728.72
2018-06-30T12:29:34.673Z,97720.97
2018-06-30T12:32:03.817Z,97711.47
2018-06-30T12:34:32.709Z,97714.78
2018-06-30T12:37:01.726Z,97709.88
2018-06-30T12:39:30.650Z,97718.03
2018-06-30T12:41:59.494Z,97709.84
2018-06-30T12:44:28.452Z,97712.97
2018-06-30T12:46:57.460Z,97711.04
2018-06-30T12:49:26.714Z,97713.22
2018-06-30T12:51:55.620Z,97714.19
2018-06-30T12:54:24.842Z,97694.02
2018-06-30T12:56:53.566Z,97697.39
2018-06-30T12:59:22.666Z,97695.72
2018-06-30T13:01:51.929Z,97698.67
2018-06-30T13:04:20.655Z,97701.09
2018-06-30T13:06:49.878Z,97701.78
2018-06-30T13:09:18.884Z,97705.72
2018-06-30T13:11:48.252Z,97703.28
2018-06-30T13:14:17.481Z,97697.95
2018-06-30T13:16:46.536Z,97701.28
2018-06-30T13:19:15.558Z,97707.35
2018-06-30T13:21:44.482Z,97697.25
2018-06-30T13:24:13.370Z,97693.82
2018-06-30T13:26:42.133Z,97690.24
2018-06-30T13:29:10.993Z,97690.31
2018-06-30T13:31:40.172Z,97685.69
2018-06-30T13:34:09.379Z,97685.86
2018-06-30T13:36:38.660Z,97684.91
2018-06-30T13:39:12.067Z,97682.48
2018-06-30T13:41:41.127Z,97683.78
2018-06-30T13:44:10.470Z,97677.80
2018-06-30T13:46:39.979Z,97677.95
2018-06-30T13:49:09.400Z,97675.62
2018-06-30T13:51:38.329Z,97677.98
2018-06-30T13:54:08.049Z,97670.81
2018-06-30T13:56:37.205Z,97676.56
2018-06-30T13:59:06.410Z,97675.20
2018-06-30T14:01:35.228Z,97680.81
2018-06-30T14:04:04.174Z,97674.28
2018-06-30T14:06:33.465Z,97673.41
2018-06-30T14:09:02.586Z,97675.65
2018-06-30T14:11:32.033Z,97680.59
2018-06-30T14:14:01.188Z,97679.69
2018-06-30T14:16:30.083Z,97673.26
2018-06-30T14:18:59.134Z,97672.84
2018-06-30T14:21:28.400Z,97667.89
2018-06-30T14:23:57.217Z,97670.27
2018-06-30T14:26:28.283Z,97672.05
2018-06-30T14:28:57.532Z,97665.33
2018-06-30T14:31:26.584Z,97661.75
2018-06-30T14:33:55.986Z,97670.39
2018-06-30T14:36:25.147Z,97667.61
2018-06-30T14:38:54.310Z,97669.77
2018-06-30T14:41:23.337Z,97669.03
2018-06-30T14:43:52.354Z,97659.08
2018-06-30T14:46:20.983Z,97666.63
2018-06-30T14:48:49.755Z,97667.34
2018-06-30T14:51:18.989Z,97661.94
2018-06-30T14:53:47.900Z,97656.40
2018-06-30T14:56:16.746Z,97657.62
2018-06-30T14:58:45.944Z,97661.56
2018-06-30T15:01:14.830Z,97664.30
2018-06-30T15:03:43.723Z,97662.08
2018-06-30T15:06:12.761Z,97660.59
2018-06-30T15:08:41.592Z,97655.84
2018-06-30T15:11:10.907Z,97664.98
2018-06-30T15:13:39.829Z,97664.30
2018-06-30T15:16:08.974Z,97670.63
2018-06-30T15:18:37.895Z,97663.84
2018-06-30T15:21:07.397Z,97661.53
2018-06-30T15:23:36.394Z,97658.23
2018-06-30T15:26:05.473Z,97666.63
2018-06-30T15:28:34.789Z,97665.78
2018-06-30T15:31:03.776Z,97671.75
2018-06-30T15:33:32.675Z,97674.34
2018-06-30T15:36:01.845Z,97672.11
2018-06-30T15:38:30.807Z,97673.76
2018-06-30T15:40:59.679Z,97670.95
2018-06-30T15:43:28.481Z,97661.06
2018-06-30T15:45:57.743Z,97667.13
2018-06-30T15:48:26.552Z,97668.86
2018-06-30T15:50:55.442Z,97674.59
2018-06-30T15:53:24.314Z,97668.25
2018-06-30T15:55:53.290Z,97675.08
2018-06-30T15:58:22.399Z,97672.88
2018-06-30T16:00:51.578Z,97672.77
2018-06-30T16:03:20.923Z,97681.83
2018-06-30T16:05:49.923Z,97677.66
2018-06-30T16:08:18.965Z,97678.82
2018-06-30T16:10:48.147Z,97672.76
2018-06-30T16:13:21.311Z,97670.95
2018-06-30T16:15:50.462Z,97682.23
2018-06-30T16:18:19.436Z,97673.12
2018-06-30T16:20:48.651Z,97678.70
2018-06-30T16:23:17.638Z,97679.91
2018-06-30T16:25:46.526Z,97672.66
2018-06-30T16:28:15.419Z,97679.47
2018-06-30T16:30:44.424Z,97676.09
2018-06-30T16:33:13.478Z,97672.89
2018-06-30T16:35:42.727Z,97677.73
2018-06-30T16:38:13.208Z,97688.45
2018-06-30T16:40:43.131Z,97686.36
2018-06-30T16:43:14.894Z,97676.27
2018-06-30T16:45:43.910Z,97685.13
2018-06-30T16:48:12.968Z,97690.53
2018-06-30T16:50:42.148Z,97692.97
2018-06-30T16:53:11.059Z,97683.01
2018-06-30T16:55:40.373Z,97689.00
2018-06-30T16:58:09.659Z,97685.55
2018-06-30T17:00:39.344Z,97691.58
2018-06-30T17:03:08.946Z,97685.31
2018-06-30T17:05:38.761Z,97684.91
2018-06-30T17:08:07.885Z,97681.46
2018-06-30T17:10:36.769Z,97671.20
2018-06-30T17:13:05.677Z,97680.50
2018-06-30T17:15:40.541Z,97683.55
2018-06-30T17:18:09.734Z,97685.88
2018-06-30T17:20:38.718Z,97682.14
2018-06-30T17:23:08.114Z,97682.36
2018-06-30T17:25:36.981Z,97670.45
2018-06-30T17:28:06.502Z,97679.05
2018-06-30T17:30:35.790Z,97673.02
2018-06-30T17:33:05.266Z,97683.58
2018-06-30T17:35:34.684Z,97677.80
2018-06-30T17:38:03.578Z,97683.09
2018-06-30T17:40:32.392Z,97694.95
2018-06-30T17:43:01.111Z,97702.08
2018-06-30T17:45:30.036Z,97700.50
2018-06-30T17:47:59.065Z,97687.89
2018-06-30T17:50:27.919Z,97700.30
2018-06-30T17:52:57.258Z,97698.56
2018-06-30T17:55:26.577Z,97690.93
2018-06-30T17:57:55.607Z,97698.38
2018-06-30T18:00:24.732Z,97689.89
2018-06-30T18:02:55.951Z,97695.10
2018-06-30T18:05:24.936Z,97700.30
2018-06-30T18:07:53.694Z,97687.92
2018-06-30T18:10:22.974Z,97700.66
2018-06-30T18:12:52.213Z,97693.77
2018-06-30T18:15:21.454Z,97699.63
2018-06-30T18:17:50.569Z,97708.89
2018-06-30T18:20:19.652Z,97711.45
2018-06-30T18:22:48.988Z,97710.03
2018-06-30T18:25:17.847Z,97706.62
2018-06-30T18:27:46.713Z,97713.19
2018-06-30T18:30:16.019Z,97710.50
2018-06-30T18:32:45.312Z,97719.12
2018-06-30T18:35:14.245Z,97722.79
2018-06-30T18:37:43.539Z,97727.31
2018-06-30T18:40:12.644Z,97733.52
2018-06-30T18:42:42.182Z,97736.89
2018-06-30T18:45:11.131Z,97734.36
2018-06-30T18:47:40.100Z,97737.42
2018-06-30T18:50:09.479Z,97737.09
2018-06-30T18:52:39.354Z,97738.08
2018-06-30T18:55:08.394Z,97744.40
2018-06-30T18:57:37.333Z,97747.52
2018-06-30T19:00:09.569Z,97756.30
2018-06-30T19:02:38.870Z,97751.59
2018-06-30T19:05:07.870Z,97760.17
2018-06-30T19:07:36.719Z,97759.00
2018-06-30T19:10:05.747Z,97762.88
2018-06-30T19:12:34.917Z,97765.00
2018-06-30T19:15:03.966Z,97771.59
2018-06-30T19:17:32.677Z,97775.09
2018-06-30T19:20:01.606Z,97779.36
2018-06-30T19:22:30.609Z,97781.88
2018-06-30T19:25:00.529Z,97787.52
2018-06-30T19:27:29.550Z,97791.20
2018-06-30T19:29:58.724Z,97797.69
2018-06-30T19:32:27.533Z,97802.75
2018-06-30T19:34:56.706Z,97811.73
2018-06-30T19:37:25.493Z,97812.69
2018-06-30T19:39:54.320Z,97813.57
2018-06-30T19:42:23.294Z,97819.44
2018-06-30T19:44:52.261Z,97823.08
2018-06-30T19:47:21.396Z,97825.78
2018-06-30T19:49:50.213Z,97827.32
2018-06-30T19:52:19.219Z,97830.41
2018-06-30T19:54:48.456Z,97837.77
2018-06-30T19:57:18.346Z,97840.52
2018-06-30T19:59:47.310Z,97848.68
2018-06-30T20:02:16.068Z,97851.55
2018-06-30T20:04:44.958Z,97861.70
2018-06-30T20:07:14.189Z,97854.95
2018-06-30T20:09:43.326Z,97859.53
2018-06-30T20:12:12.330Z,97860.23
2018-06-30T20:14:41.165Z,97862.45
2018-06-30T20:17:10.187Z,97863.15
2018-06-30T20:19:39.223Z,97865.39
2018-06-30T20:22:08.259Z,97868.34
2018-06-30T20:24:37.315Z,97880.01
2018-06-30T20:27:06.489Z,97874.42
2018-06-30T20:29:35.424Z,97877.60
2018-06-30T20:32:05.787Z,97883.77
2018-06-30T20:34:34.671Z,97890.31
2018-06-30T20:37:04.068Z,97891.37
2018-06-30T20:39:33.081Z,97897.91
2018-06-30T20:42:02.307Z,97900.49
2018-06-30T20:44:31.553Z,97897.22
2018-06-30T20:47:00.643Z,97895.27
2018-06-30T20:49:29.740Z,97897.81
2018-06-30T20:51:58.494Z,97899.71
2018-06-30T20:54:27.639Z,97908.52
2018-06-30T20:56:56.483Z,97902.41
2018-06-30T20:59:25.855Z,97912.63
2018-06-30T21:01:55.657Z,97908.62
2018-06-30T21:04:25.532Z,97921.75
2018-06-30T21:06:54.580Z,97923.43
2018-06-30T21:09:23.510Z,97922.42
2018-06-30T21:11:52.704Z,97934.60
2018-06-30T21:14:21.482Z,97938.28
2018-06-30T21:16:50.408Z,97940.42
2018-06-30T21:19:19.717Z,97939.85
2018-06-30T21:21:48.465Z,97940.77
2018-06-30T21:24:17.778Z,97953.81
2018-06-30T21:26:46.606Z,97947.03
2018-06-30T21:29:15.436Z,97948.33
2018-06-30T21:31:44.327Z,97949.04
2018-06-30T21:34:13.112Z,97948.03
2018-06-30T21:36:42.096Z,97956.09
2018-06-30T21:39:12.938Z,97958.23
2018-06-30T21:41:42.224Z,97957.02
2018-06-30T21:44:11.335Z,97961.08
2018-06-30T21:46:40.593Z,97958.08
2018-06-30T21:49:10.198Z,97966.00
2018-06-30T21:51:39.633Z,97962.69
2018-06-30T21:54:09.799Z,97969.06
2018-06-30T21:56:41.020Z,97967.37
2018-06-30T21:59:10.602Z,97972.57
2018-06-30T22:01:41.173Z,97972.74
2018-06-30T22:04:10.013Z,97986.39
2018-06-30T22:06:39.764Z,97980.17
2018-06-30T22:09:10.803Z,97993.42
2018-06-30T22:11:39.708Z,97991.63
2018-06-30T22:14:08.686Z,97989.37
2018-06-30T22:16:37.626Z,97995.98
2018-06-30T22:19:06.607Z,97989.69
2018-06-30T22:21:36.341Z,97987.34
2018-06-30T22:24:05.911Z,97988.39
2018-06-30T22:26:34.933Z,97986.15
2018-06-30T22:29:03.687Z,97987.55
2018-06-30T22:31:32.453Z,97992.91
2018-06-30T22:34:01.506Z,97987.55
2018-06-30T22:36:30.326Z,97986.40
2018-06-30T22:38:59.266Z,97991.67
2018-06-30T22:41:28.107Z,97994.88
2018-06-30T22:43:57.080Z,97993.56
2018-06-30T22:46:26.028Z,97996.20
2018-06-30T22:48:55.128Z,98006.14
2018-06-30T22:51:25.235Z,98000.68
2018-06-30T22:53:54.059Z,98004.70
2018-06-30T22:56:22.926Z,98009.03
2018-06-30T22:58:52.062Z,98008.03
2018-06-30T23:01:21.106Z,98008.02
2018-06-30T23:03:50.022Z,98013.26
2018-06-30T23:06:18.863Z,98015.98
2018-06-30T23:08:53.817Z,98011.47
2018-06-30T23:11:24.488Z,98021.38
2018-06-30T23:13:53.860Z,98017.13
2018-06-30T23:16:22.855Z,98017.51
2018-06-30T23:18:51.817Z,98019.02
2018-06-30T23:21:20.785Z,98028.57
2018-06-30T23:23:49.857Z,98026.77
2018-06-30T23:26:18.790Z,98025.19
2018-06-30T23:28:47.657Z,98022.36
2018-06-30T23:31:16.577Z,98019.76
2018-06-30T23:33:45.354Z,98017.47
2018-06-30T23:36:14.215Z,98027.49
2018-06-30T23:38:43.138Z,98030.22
2018-06-30T23:41:11.888Z,98029.87
2018-06-30T23:43:41.163Z,98029.31
2018-06-30T23:46:09.934Z,98032.93
